sensor_id;sensor_type;location;lat;lon;timestamp;P1;durP1;ratioP1;P2;durP2;ratioP2
19593;SDS011;9944;48.240;16.478;2023-04-16T00:00:51;4.32;;;3.05;;
19593;SDS011;9944;48.240;16.478;2023-04-16T00:04:54;3.83;;;3.13;;
19593;SDS011;9944;48.240;16.478;2023-04-16T00:08:57;4.57;;;3.20;;
19593;SDS011;9944;48.240;16.478;2023-04-16T00:13:00;3.55;;;3.05;;
19593;SDS011;9944;48.240;16.478;2023-04-16T00:17:05;3.55;;;2.97;;
19593;SDS011;9944;48.240;16.478;2023-04-16T00:21:09;4.45;;;2.88;;
19593;SDS011;9944;48.240;16.478;2023-04-16T00:25:12;3.67;;;2.30;;
19593;SDS011;9944;48.240;16.478;2023-04-16T00:29:16;4.65;;;3.20;;
19593;SDS011;9944;48.240;16.478;2023-04-16T00:33:21;3.88;;;2.53;;
19593;SDS011;9944;48.240;16.478;2023-04-16T00:37:25;3.08;;;2.47;;
19593;SDS011;9944;48.240;16.478;2023-04-16T00:41:28;3.47;;;2.65;;
19593;SDS011;9944;48.240;16.478;2023-04-16T00:45:31;3.13;;;2.83;;
19593;SDS011;9944;48.240;16.478;2023-04-16T00:49:36;4.32;;;3.00;;
19593;SDS011;9944;48.240;16.478;2023-04-16T00:53:39;3.53;;;2.78;;
19593;SDS011;9944;48.240;16.478;2023-04-16T00:57:43;4.40;;;2.97;;
19593;SDS011;9944;48.240;16.478;2023-04-16T01:01:46;5.82;;;3.25;;
19593;SDS011;9944;48.240;16.478;2023-04-16T01:05:51;5.25;;;3.85;;
19593;SDS011;9944;48.240;16.478;2023-04-16T01:09:54;4.13;;;3.63;;
19593;SDS011;9944;48.240;16.478;2023-04-16T01:13:57;4.05;;;3.22;;
19593;SDS011;9944;48.240;16.478;2023-04-16T01:18:01;4.85;;;3.72;;
19593;SDS011;9944;48.240;16.478;2023-04-16T01:22:26;3.92;;;3.40;;
19593;SDS011;9944;48.240;16.478;2023-04-16T01:26:29;6.20;;;4.15;;
19593;SDS011;9944;48.240;16.478;2023-04-16T01:30:32;5.78;;;4.25;;
19593;SDS011;9944;48.240;16.478;2023-04-16T01:34:43;6.57;;;4.43;;
19593;SDS011;9944;48.240;16.478;2023-04-16T01:38:48;6.90;;;5.05;;
19593;SDS011;9944;48.240;16.478;2023-04-16T01:42:51;6.13;;;4.53;;
19593;SDS011;9944;48.240;16.478;2023-04-16T01:46:54;6.78;;;4.82;;
19593;SDS011;9944;48.240;16.478;2023-04-16T01:50:59;6.35;;;4.53;;
19593;SDS011;9944;48.240;16.478;2023-04-16T01:55:03;5.78;;;4.28;;
19593;SDS011;9944;48.240;16.478;2023-04-16T01:59:07;5.82;;;4.32;;
19593;SDS011;9944;48.240;16.478;2023-04-16T02:03:14;5.78;;;3.97;;
19593;SDS011;9944;48.240;16.478;2023-04-16T02:07:18;4.97;;;4.00;;
19593;SDS011;9944;48.240;16.478;2023-04-16T02:11:22;5.22;;;3.90;;
19593;SDS011;9944;48.240;16.478;2023-04-16T02:15:26;5.82;;;4.45;;
19593;SDS011;9944;48.240;16.478;2023-04-16T02:19:29;5.72;;;4.10;;
19593;SDS011;9944;48.240;16.478;2023-04-16T02:23:33;5.30;;;3.85;;
19593;SDS011;9944;48.240;16.478;2023-04-16T02:27:38;6.60;;;4.60;;
19593;SDS011;9944;48.240;16.478;2023-04-16T02:31:55;6.35;;;4.25;;
19593;SDS011;9944;48.240;16.478;2023-04-16T02:36:01;6.43;;;4.55;;
19593;SDS011;9944;48.240;16.478;2023-04-16T02:40:04;4.88;;;3.90;;
19593;SDS011;9944;48.240;16.478;2023-04-16T02:44:09;5.95;;;4.55;;
19593;SDS011;9944;48.240;16.478;2023-04-16T02:48:13;6.60;;;4.72;;
19593;SDS011;9944;48.240;16.478;2023-04-16T02:52:16;6.55;;;4.47;;
19593;SDS011;9944;48.240;16.478;2023-04-16T02:56:19;6.43;;;4.57;;
19593;SDS011;9944;48.240;16.478;2023-04-16T03:00:23;8.15;;;5.32;;
19593;SDS011;9944;48.240;16.478;2023-04-16T03:04:27;7.80;;;5.03;;
19593;SDS011;9944;48.240;16.478;2023-04-16T03:08:30;8.25;;;5.43;;
19593;SDS011;9944;48.240;16.478;2023-04-16T03:12:33;7.70;;;5.70;;
19593;SDS011;9944;48.240;16.478;2023-04-16T03:16:41;8.15;;;5.65;;
19593;SDS011;9944;48.240;16.478;2023-04-16T03:20:44;6.50;;;4.75;;
19593;SDS011;9944;48.240;16.478;2023-04-16T03:24:48;7.50;;;5.15;;
19593;SDS011;9944;48.240;16.478;2023-04-16T03:28:51;7.15;;;5.65;;
19593;SDS011;9944;48.240;16.478;2023-04-16T03:32:56;7.95;;;5.53;;
19593;SDS011;9944;48.240;16.478;2023-04-16T03:36:59;7.35;;;5.18;;
19593;SDS011;9944;48.240;16.478;2023-04-16T03:41:02;5.32;;;4.38;;
19593;SDS011;9944;48.240;16.478;2023-04-16T03:45:08;6.55;;;4.95;;
19593;SDS011;9944;48.240;16.478;2023-04-16T03:49:13;6.43;;;5.25;;
19593;SDS011;9944;48.240;16.478;2023-04-16T03:53:17;8.80;;;4.95;;
19593;SDS011;9944;48.240;16.478;2023-04-16T03:57:21;6.30;;;5.13;;
19593;SDS011;9944;48.240;16.478;2023-04-16T04:01:27;6.97;;;5.15;;
19593;SDS011;9944;48.240;16.478;2023-04-16T04:05:35;6.05;;;5.20;;
19593;SDS011;9944;48.240;16.478;2023-04-16T04:09:39;6.68;;;4.78;;
19593;SDS011;9944;48.240;16.478;2023-04-16T04:13:42;5.80;;;4.47;;
19593;SDS011;9944;48.240;16.478;2023-04-16T04:17:45;6.25;;;4.82;;
19593;SDS011;9944;48.240;16.478;2023-04-16T04:21:50;5.68;;;4.53;;
19593;SDS011;9944;48.240;16.478;2023-04-16T04:25:53;5.70;;;4.68;;
19593;SDS011;9944;48.240;16.478;2023-04-16T04:29:58;6.68;;;4.78;;
19593;SDS011;9944;48.240;16.478;2023-04-16T04:34:01;5.88;;;4.50;;
19593;SDS011;9944;48.240;16.478;2023-04-16T04:38:06;6.35;;;4.60;;
19593;SDS011;9944;48.240;16.478;2023-04-16T04:42:09;6.35;;;4.63;;
19593;SDS011;9944;48.240;16.478;2023-04-16T04:46:13;5.93;;;4.68;;
19593;SDS011;9944;48.240;16.478;2023-04-16T04:50:16;6.57;;;4.80;;
19593;SDS011;9944;48.240;16.478;2023-04-16T04:54:21;7.80;;;5.50;;
19593;SDS011;9944;48.240;16.478;2023-04-16T04:58:27;6.10;;;4.97;;
19593;SDS011;9944;48.240;16.478;2023-04-16T05:02:30;6.93;;;5.53;;
19593;SDS011;9944;48.240;16.478;2023-04-16T05:06:33;8.15;;;5.63;;
19593;SDS011;9944;48.240;16.478;2023-04-16T05:10:38;7.18;;;5.85;;
19593;SDS011;9944;48.240;16.478;2023-04-16T05:14:41;8.57;;;5.63;;
19593;SDS011;9944;48.240;16.478;2023-04-16T05:18:44;7.18;;;5.68;;
19593;SDS011;9944;48.240;16.478;2023-04-16T05:22:47;6.10;;;4.95;;
19593;SDS011;9944;48.240;16.478;2023-04-16T05:26:52;8.30;;;5.50;;
19593;SDS011;9944;48.240;16.478;2023-04-16T05:30:57;9.30;;;5.95;;
19593;SDS011;9944;48.240;16.478;2023-04-16T05:35:00;7.38;;;5.38;;
19593;SDS011;9944;48.240;16.478;2023-04-16T05:39:03;7.15;;;5.00;;
19593;SDS011;9944;48.240;16.478;2023-04-16T05:43:09;7.55;;;5.70;;
19593;SDS011;9944;48.240;16.478;2023-04-16T05:47:12;6.35;;;5.22;;
19593;SDS011;9944;48.240;16.478;2023-04-16T05:51:16;8.18;;;6.40;;
19593;SDS011;9944;48.240;16.478;2023-04-16T05:55:19;7.70;;;5.90;;
19593;SDS011;9944;48.240;16.478;2023-04-16T05:59:23;8.95;;;6.25;;
19593;SDS011;9944;48.240;16.478;2023-04-16T06:03:27;9.73;;;6.43;;
19593;SDS011;9944;48.240;16.478;2023-04-16T06:07:30;9.55;;;7.00;;
19593;SDS011;9944;48.240;16.478;2023-04-16T06:11:34;9.32;;;6.50;;
19593;SDS011;9944;48.240;16.478;2023-04-16T06:15:38;9.90;;;6.60;;
19593;SDS011;9944;48.240;16.478;2023-04-16T06:19:41;9.55;;;6.63;;
19593;SDS011;9944;48.240;16.478;2023-04-16T06:23:44;10.00;;;6.80;;
19593;SDS011;9944;48.240;16.478;2023-04-16T06:27:48;9.88;;;6.22;;
19593;SDS011;9944;48.240;16.478;2023-04-16T06:31:52;8.80;;;6.32;;
19593;SDS011;9944;48.240;16.478;2023-04-16T06:35:56;9.82;;;6.88;;
19593;SDS011;9944;48.240;16.478;2023-04-16T06:39:59;9.70;;;6.40;;
19593;SDS011;9944;48.240;16.478;2023-04-16T06:44:02;9.60;;;6.20;;
19593;SDS011;9944;48.240;16.478;2023-04-16T06:48:07;7.85;;;5.97;;
19593;SDS011;9944;48.240;16.478;2023-04-16T06:52:10;7.53;;;5.85;;
19593;SDS011;9944;48.240;16.478;2023-04-16T06:56:13;6.95;;;5.25;;
19593;SDS011;9944;48.240;16.478;2023-04-16T07:00:16;6.80;;;4.93;;
19593;SDS011;9944;48.240;16.478;2023-04-16T07:04:21;7.35;;;5.25;;
19593;SDS011;9944;48.240;16.478;2023-04-16T07:08:24;7.32;;;4.97;;
19593;SDS011;9944;48.240;16.478;2023-04-16T07:12:27;8.02;;;5.60;;
19593;SDS011;9944;48.240;16.478;2023-04-16T07:16:32;6.18;;;4.63;;
19593;SDS011;9944;48.240;16.478;2023-04-16T07:20:36;8.43;;;5.88;;
19593;SDS011;9944;48.240;16.478;2023-04-16T07:24:39;7.00;;;5.20;;
19593;SDS011;9944;48.240;16.478;2023-04-16T07:28:42;7.70;;;5.50;;
19593;SDS011;9944;48.240;16.478;2023-04-16T07:32:45;6.55;;;5.03;;
19593;SDS011;9944;48.240;16.478;2023-04-16T07:36:50;7.93;;;5.50;;
19593;SDS011;9944;48.240;16.478;2023-04-16T07:40:53;7.82;;;4.88;;
19593;SDS011;9944;48.240;16.478;2023-04-16T07:44:57;6.82;;;5.47;;
19593;SDS011;9944;48.240;16.478;2023-04-16T07:49:00;7.82;;;5.63;;
19593;SDS011;9944;48.240;16.478;2023-04-16T07:53:05;6.72;;;4.82;;
19593;SDS011;9944;48.240;16.478;2023-04-16T07:57:08;5.43;;;4.40;;
19593;SDS011;9944;48.240;16.478;2023-04-16T08:01:12;6.25;;;5.00;;
19593;SDS011;9944;48.240;16.478;2023-04-16T08:05:15;9.38;;;5.43;;
19593;SDS011;9944;48.240;16.478;2023-04-16T08:09:21;5.90;;;4.60;;
19593;SDS011;9944;48.240;16.478;2023-04-16T08:13:25;6.32;;;4.80;;
19593;SDS011;9944;48.240;16.478;2023-04-16T08:17:28;6.95;;;4.68;;
19593;SDS011;9944;48.240;16.478;2023-04-16T08:21:31;6.35;;;4.50;;
19593;SDS011;9944;48.240;16.478;2023-04-16T08:25:36;4.85;;;3.58;;
19593;SDS011;9944;48.240;16.478;2023-04-16T08:29:39;5.07;;;3.50;;
19593;SDS011;9944;48.240;16.478;2023-04-16T08:33:42;3.50;;;3.00;;
19593;SDS011;9944;48.240;16.478;2023-04-16T08:37:45;4.95;;;3.47;;
19593;SDS011;9944;48.240;16.478;2023-04-16T08:41:50;4.20;;;3.33;;
19593;SDS011;9944;48.240;16.478;2023-04-16T08:45:55;4.28;;;3.25;;
19593;SDS011;9944;48.240;16.478;2023-04-16T08:49:59;4.15;;;3.35;;
19593;SDS011;9944;48.240;16.478;2023-04-16T08:54:07;4.57;;;3.55;;
19593;SDS011;9944;48.240;16.478;2023-04-16T08:58:12;3.20;;;2.85;;
19593;SDS011;9944;48.240;16.478;2023-04-16T09:02:16;3.83;;;2.80;;
19593;SDS011;9944;48.240;16.478;2023-04-16T09:06:20;3.60;;;2.90;;
19593;SDS011;9944;48.240;16.478;2023-04-16T09:10:24;4.13;;;3.22;;
19593;SDS011;9944;48.240;16.478;2023-04-16T09:14:29;4.35;;;2.90;;
19593;SDS011;9944;48.240;16.478;2023-04-16T09:18:33;3.30;;;2.80;;
19593;SDS011;9944;48.240;16.478;2023-04-16T09:22:36;3.40;;;2.60;;
19593;SDS011;9944;48.240;16.478;2023-04-16T09:26:40;3.65;;;2.63;;
19593;SDS011;9944;48.240;16.478;2023-04-16T09:30:46;2.63;;;2.30;;
19593;SDS011;9944;48.240;16.478;2023-04-16T09:34:53;2.85;;;2.40;;
19593;SDS011;9944;48.240;16.478;2023-04-16T09:38:57;2.55;;;2.17;;
19593;SDS011;9944;48.240;16.478;2023-04-16T09:43:03;3.03;;;2.25;;
19593;SDS011;9944;48.240;16.478;2023-04-16T09:47:13;2.63;;;2.13;;
19593;SDS011;9944;48.240;16.478;2023-04-16T09:51:16;2.25;;;1.90;;
19593;SDS011;9944;48.240;16.478;2023-04-16T09:55:21;2.58;;;2.10;;
19593;SDS011;9944;48.240;16.478;2023-04-16T09:59:26;3.78;;;2.50;;
19593;SDS011;9944;48.240;16.478;2023-04-16T10:03:33;2.22;;;2.03;;
19593;SDS011;9944;48.240;16.478;2023-04-16T10:07:37;2.15;;;1.95;;
19593;SDS011;9944;48.240;16.478;2023-04-16T10:11:40;2.47;;;1.90;;
19593;SDS011;9944;48.240;16.478;2023-04-16T10:15:45;2.53;;;2.15;;
19593;SDS011;9944;48.240;16.478;2023-04-16T10:19:50;2.30;;;2.10;;
19593;SDS011;9944;48.240;16.478;2023-04-16T10:23:54;2.00;;;1.65;;
19593;SDS011;9944;48.240;16.478;2023-04-16T10:27:57;1.52;;;1.42;;
19593;SDS011;9944;48.240;16.478;2023-04-16T10:32:02;2.00;;;1.80;;
19593;SDS011;9944;48.240;16.478;2023-04-16T10:36:07;2.13;;;1.90;;
19593;SDS011;9944;48.240;16.478;2023-04-16T10:40:21;2.80;;;1.92;;
19593;SDS011;9944;48.240;16.478;2023-04-16T10:44:25;2.17;;;1.92;;
19593;SDS011;9944;48.240;16.478;2023-04-16T10:48:32;1.80;;;1.50;;
19593;SDS011;9944;48.240;16.478;2023-04-16T10:57:20;2.03;;;1.55;;
19593;SDS011;9944;48.240;16.478;2023-04-16T11:01:32;1.65;;;1.55;;
19593;SDS011;9944;48.240;16.478;2023-04-16T11:05:43;2.63;;;1.50;;
19593;SDS011;9944;48.240;16.478;2023-04-16T11:09:53;1.77;;;1.50;;
19593;SDS011;9944;48.240;16.478;2023-04-16T11:13:58;2.03;;;1.50;;
19593;SDS011;9944;48.240;16.478;2023-04-16T11:18:01;2.20;;;1.70;;
19593;SDS011;9944;48.240;16.478;2023-04-16T11:22:07;1.40;;;1.30;;
19593;SDS011;9944;48.240;16.478;2023-04-16T11:26:24;1.50;;;1.30;;
19593;SDS011;9944;48.240;16.478;2023-04-16T11:30:28;1.60;;;1.50;;
19593;SDS011;9944;48.240;16.478;2023-04-16T11:34:32;1.80;;;1.58;;
19593;SDS011;9944;48.240;16.478;2023-04-16T11:38:36;3.88;;;1.98;;
19593;SDS011;9944;48.240;16.478;2023-04-16T11:42:43;2.00;;;1.80;;
19593;SDS011;9944;48.240;16.478;2023-04-16T11:46:46;2.65;;;1.52;;
19593;SDS011;9944;48.240;16.478;2023-04-16T11:50:54;1.75;;;1.60;;
19593;SDS011;9944;48.240;16.478;2023-04-16T11:54:58;1.63;;;1.40;;
19593;SDS011;9944;48.240;16.478;2023-04-16T11:59:09;1.83;;;1.52;;
19593;SDS011;9944;48.240;16.478;2023-04-16T12:03:14;1.85;;;1.50;;
19593;SDS011;9944;48.240;16.478;2023-04-16T12:07:18;1.65;;;1.55;;
19593;SDS011;9944;48.240;16.478;2023-04-16T12:11:27;1.60;;;1.50;;
19593;SDS011;9944;48.240;16.478;2023-04-16T12:15:44;1.58;;;1.40;;
19593;SDS011;9944;48.240;16.478;2023-04-16T12:19:49;4.07;;;2.58;;
19593;SDS011;9944;48.240;16.478;2023-04-16T12:23:53;1.67;;;1.50;;
19593;SDS011;9944;48.240;16.478;2023-04-16T12:27:56;1.27;;;1.10;;
19593;SDS011;9944;48.240;16.478;2023-04-16T12:32:01;1.23;;;1.10;;
19593;SDS011;9944;48.240;16.478;2023-04-16T12:36:15;1.25;;;1.00;;
19593;SDS011;9944;48.240;16.478;2023-04-16T12:40:19;1.55;;;1.35;;
19593;SDS011;9944;48.240;16.478;2023-04-16T12:44:22;1.50;;;1.40;;
19593;SDS011;9944;48.240;16.478;2023-04-16T12:48:26;1.40;;;1.30;;
19593;SDS011;9944;48.240;16.478;2023-04-16T12:52:29;1.55;;;1.35;;
19593;SDS011;9944;48.240;16.478;2023-04-16T12:56:32;2.08;;;1.67;;
19593;SDS011;9944;48.240;16.478;2023-04-16T13:00:37;2.17;;;1.65;;
19593;SDS011;9944;48.240;16.478;2023-04-16T13:04:41;1.90;;;1.55;;
19593;SDS011;9944;48.240;16.478;2023-04-16T13:08:45;3.15;;;1.70;;
19593;SDS011;9944;48.240;16.478;2023-04-16T13:12:48;1.55;;;1.35;;
19593;SDS011;9944;48.240;16.478;2023-04-16T13:16:51;1.65;;;1.40;;
19593;SDS011;9944;48.240;16.478;2023-04-16T13:20:55;1.83;;;1.50;;
19593;SDS011;9944;48.240;16.478;2023-04-16T13:24:59;1.67;;;1.20;;
19593;SDS011;9944;48.240;16.478;2023-04-16T13:29:02;1.48;;;1.35;;
19593;SDS011;9944;48.240;16.478;2023-04-16T13:33:06;1.45;;;1.30;;
19593;SDS011;9944;48.240;16.478;2023-04-16T13:37:11;1.70;;;1.48;;
19593;SDS011;9944;48.240;16.478;2023-04-16T13:41:14;2.40;;;1.70;;
19593;SDS011;9944;48.240;16.478;2023-04-16T13:45:17;1.70;;;1.58;;
19593;SDS011;9944;48.240;16.478;2023-04-16T13:49:21;2.10;;;1.73;;
19593;SDS011;9944;48.240;16.478;2023-04-16T13:53:26;1.65;;;1.42;;
19593;SDS011;9944;48.240;16.478;2023-04-16T13:57:29;2.33;;;1.60;;
19593;SDS011;9944;48.240;16.478;2023-04-16T14:01:32;1.63;;;1.40;;
19593;SDS011;9944;48.240;16.478;2023-04-16T14:05:35;1.35;;;1.25;;
19593;SDS011;9944;48.240;16.478;2023-04-16T14:09:40;1.48;;;1.30;;
19593;SDS011;9944;48.240;16.478;2023-04-16T14:13:43;2.90;;;1.63;;
19593;SDS011;9944;48.240;16.478;2023-04-16T14:17:47;1.40;;;1.30;;
19593;SDS011;9944;48.240;16.478;2023-04-16T14:21:50;1.38;;;1.27;;
19593;SDS011;9944;48.240;16.478;2023-04-16T14:25:54;1.77;;;1.58;;
19593;SDS011;9944;48.240;16.478;2023-04-16T14:29:57;1.88;;;1.67;;
19593;SDS011;9944;48.240;16.478;2023-04-16T14:34:01;1.95;;;1.73;;
19593;SDS011;9944;48.240;16.478;2023-04-16T14:38:04;1.60;;;1.50;;
19593;SDS011;9944;48.240;16.478;2023-04-16T14:42:09;1.98;;;1.55;;
19593;SDS011;9944;48.240;16.478;2023-04-16T14:46:12;2.05;;;1.48;;
19593;SDS011;9944;48.240;16.478;2023-04-16T14:50:18;1.90;;;1.65;;
19593;SDS011;9944;48.240;16.478;2023-04-16T14:54:21;1.88;;;1.42;;
19593;SDS011;9944;48.240;16.478;2023-04-16T14:58:25;2.08;;;1.63;;
19593;SDS011;9944;48.240;16.478;2023-04-16T15:02:29;2.08;;;1.67;;
19593;SDS011;9944;48.240;16.478;2023-04-16T15:06:32;1.67;;;1.50;;
19593;SDS011;9944;48.240;16.478;2023-04-16T15:10:36;1.83;;;1.60;;
19593;SDS011;9944;48.240;16.478;2023-04-16T15:14:40;2.08;;;1.73;;
19593;SDS011;9944;48.240;16.478;2023-04-16T15:18:44;2.58;;;2.13;;
19593;SDS011;9944;48.240;16.478;2023-04-16T15:22:47;2.20;;;1.73;;
19593;SDS011;9944;48.240;16.478;2023-04-16T15:26:50;1.58;;;1.30;;
19593;SDS011;9944;48.240;16.478;2023-04-16T15:30:54;4.18;;;2.88;;
19593;SDS011;9944;48.240;16.478;2023-04-16T15:35:00;1.65;;;1.50;;
19593;SDS011;9944;48.240;16.478;2023-04-16T15:39:05;1.52;;;1.42;;
19593;SDS011;9944;48.240;16.478;2023-04-16T15:43:09;3.80;;;1.80;;
19593;SDS011;9944;48.240;16.478;2023-04-16T15:47:13;1.50;;;1.30;;
19593;SDS011;9944;48.240;16.478;2023-04-16T15:51:16;1.60;;;1.50;;
19593;SDS011;9944;48.240;16.478;2023-04-16T15:55:19;1.75;;;1.55;;
19593;SDS011;9944;48.240;16.478;2023-04-16T15:59:22;1.83;;;1.63;;
19593;SDS011;9944;48.240;16.478;2023-04-16T16:03:27;1.88;;;1.65;;
19593;SDS011;9944;48.240;16.478;2023-04-16T16:07:32;2.15;;;1.55;;
19593;SDS011;9944;48.240;16.478;2023-04-16T16:11:35;2.00;;;1.40;;
19593;SDS011;9944;48.240;16.478;2023-04-16T16:15:39;1.45;;;1.27;;
19593;SDS011;9944;48.240;16.478;2023-04-16T16:19:43;1.60;;;1.33;;
19593;SDS011;9944;48.240;16.478;2023-04-16T16:23:47;1.50;;;1.40;;
19593;SDS011;9944;48.240;16.478;2023-04-16T16:27:50;1.35;;;1.25;;
19593;SDS011;9944;48.240;16.478;2023-04-16T16:31:53;1.77;;;1.45;;
19593;SDS011;9944;48.240;16.478;2023-04-16T16:35:57;2.05;;;1.40;;
19593;SDS011;9944;48.240;16.478;2023-04-16T16:40:01;2.58;;;1.35;;
19593;SDS011;9944;48.240;16.478;2023-04-16T16:44:04;1.80;;;1.40;;
19593;SDS011;9944;48.240;16.478;2023-04-16T16:48:07;2.05;;;1.55;;
19593;SDS011;9944;48.240;16.478;2023-04-16T16:52:12;1.98;;;1.58;;
19593;SDS011;9944;48.240;16.478;2023-04-16T16:56:15;1.70;;;1.42;;
19593;SDS011;9944;48.240;16.478;2023-04-16T17:00:18;3.00;;;2.10;;
19593;SDS011;9944;48.240;16.478;2023-04-16T17:04:22;2.03;;;1.55;;
19593;SDS011;9944;48.240;16.478;2023-04-16T17:08:27;2.40;;;1.60;;
19593;SDS011;9944;48.240;16.478;2023-04-16T17:12:30;2.00;;;1.73;;
19593;SDS011;9944;48.240;16.478;2023-04-16T17:16:33;1.65;;;1.50;;
19593;SDS011;9944;48.240;16.478;2023-04-16T17:20:37;1.92;;;1.60;;
19593;SDS011;9944;48.240;16.478;2023-04-16T17:24:41;1.80;;;1.60;;
19593;SDS011;9944;48.240;16.478;2023-04-16T17:28:44;2.10;;;1.80;;
19593;SDS011;9944;48.240;16.478;2023-04-16T17:32:47;2.95;;;1.90;;
19593;SDS011;9944;48.240;16.478;2023-04-16T17:36:51;2.22;;;1.95;;
19593;SDS011;9944;48.240;16.478;2023-04-16T17:40:55;2.40;;;2.20;;
19593;SDS011;9944;48.240;16.478;2023-04-16T17:44:59;3.90;;;2.35;;
19593;SDS011;9944;48.240;16.478;2023-04-16T17:49:02;3.08;;;2.40;;
19593;SDS011;9944;48.240;16.478;2023-04-16T17:53:05;2.97;;;2.55;;
19593;SDS011;9944;48.240;16.478;2023-04-16T17:57:09;3.58;;;2.72;;
19593;SDS011;9944;48.240;16.478;2023-04-16T18:01:13;4.90;;;2.70;;
19593;SDS011;9944;48.240;16.478;2023-04-16T18:05:16;3.60;;;3.03;;
19593;SDS011;9944;48.240;16.478;2023-04-16T18:09:19;3.03;;;2.72;;
19593;SDS011;9944;48.240;16.478;2023-04-16T18:13:24;4.03;;;3.25;;
19593;SDS011;9944;48.240;16.478;2023-04-16T18:17:27;4.15;;;3.50;;
19593;SDS011;9944;48.240;16.478;2023-04-16T18:21:30;3.97;;;3.40;;
19593;SDS011;9944;48.240;16.478;2023-04-16T18:25:34;4.07;;;3.30;;
19593;SDS011;9944;48.240;16.478;2023-04-16T18:29:39;4.38;;;2.95;;
19593;SDS011;9944;48.240;16.478;2023-04-16T18:33:45;3.92;;;3.15;;
19593;SDS011;9944;48.240;16.478;2023-04-16T18:37:57;4.20;;;3.25;;
19593;SDS011;9944;48.240;16.478;2023-04-16T18:42:00;4.65;;;3.28;;
19593;SDS011;9944;48.240;16.478;2023-04-16T18:46:05;3.75;;;3.33;;
19593;SDS011;9944;48.240;16.478;2023-04-16T18:50:09;3.80;;;3.05;;
19593;SDS011;9944;48.240;16.478;2023-04-16T18:54:12;4.60;;;3.28;;
19593;SDS011;9944;48.240;16.478;2023-04-16T18:58:15;5.10;;;3.35;;
19593;SDS011;9944;48.240;16.478;2023-04-16T19:02:20;4.28;;;3.10;;
19593;SDS011;9944;48.240;16.478;2023-04-16T19:06:23;4.07;;;3.20;;
19593;SDS011;9944;48.240;16.478;2023-04-16T19:10:28;3.58;;;3.00;;
19593;SDS011;9944;48.240;16.478;2023-04-16T19:14:31;5.03;;;2.95;;
19593;SDS011;9944;48.240;16.478;2023-04-16T19:18:36;4.40;;;3.08;;
19593;SDS011;9944;48.240;16.478;2023-04-16T19:22:40;3.30;;;3.00;;
19593;SDS011;9944;48.240;16.478;2023-04-16T19:26:43;4.43;;;2.92;;
19593;SDS011;9944;48.240;16.478;2023-04-16T19:30:48;3.08;;;2.78;;
19593;SDS011;9944;48.240;16.478;2023-04-16T19:34:53;4.35;;;2.90;;
19593;SDS011;9944;48.240;16.478;2023-04-16T19:38:56;4.53;;;3.28;;
19593;SDS011;9944;48.240;16.478;2023-04-16T19:42:59;3.22;;;2.72;;
19593;SDS011;9944;48.240;16.478;2023-04-16T19:47:03;3.70;;;2.97;;
19593;SDS011;9944;48.240;16.478;2023-04-16T19:51:08;3.35;;;2.58;;
19593;SDS011;9944;48.240;16.478;2023-04-16T19:55:12;4.13;;;3.10;;
19593;SDS011;9944;48.240;16.478;2023-04-16T19:59:15;5.40;;;3.22;;
19593;SDS011;9944;48.240;16.478;2023-04-16T20:03:18;4.05;;;3.03;;
19593;SDS011;9944;48.240;16.478;2023-04-16T20:07:23;3.50;;;2.90;;
19593;SDS011;9944;48.240;16.478;2023-04-16T20:11:26;2.95;;;2.40;;
19593;SDS011;9944;48.240;16.478;2023-04-16T20:15:29;3.20;;;2.70;;
19593;SDS011;9944;48.240;16.478;2023-04-16T20:19:33;3.88;;;2.83;;
19593;SDS011;9944;48.240;16.478;2023-04-16T20:23:39;3.25;;;2.63;;
19593;SDS011;9944;48.240;16.478;2023-04-16T20:27:42;3.28;;;2.80;;
19593;SDS011;9944;48.240;16.478;2023-04-16T20:31:46;3.38;;;2.83;;
19593;SDS011;9944;48.240;16.478;2023-04-16T20:35:49;3.63;;;2.78;;
19593;SDS011;9944;48.240;16.478;2023-04-16T20:39:54;3.58;;;2.90;;
19593;SDS011;9944;48.240;16.478;2023-04-16T20:43:57;3.35;;;2.70;;
19593;SDS011;9944;48.240;16.478;2023-04-16T20:48:05;3.88;;;2.70;;
19593;SDS011;9944;48.240;16.478;2023-04-16T20:52:09;2.85;;;2.22;;
19593;SDS011;9944;48.240;16.478;2023-04-16T20:56:13;3.92;;;2.80;;
19593;SDS011;9944;48.240;16.478;2023-04-16T21:00:17;3.45;;;2.58;;
19593;SDS011;9944;48.240;16.478;2023-04-16T21:04:20;3.45;;;2.83;;
19593;SDS011;9944;48.240;16.478;2023-04-16T21:08:24;3.45;;;2.67;;
19593;SDS011;9944;48.240;16.478;2023-04-16T21:12:28;3.60;;;2.60;;
19593;SDS011;9944;48.240;16.478;2023-04-16T21:16:31;4.22;;;2.70;;
19593;SDS011;9944;48.240;16.478;2023-04-16T21:20:34;2.90;;;2.60;;
19593;SDS011;9944;48.240;16.478;2023-04-16T21:24:38;3.28;;;2.60;;
19593;SDS011;9944;48.240;16.478;2023-04-16T21:28:42;2.95;;;2.42;;
19593;SDS011;9944;48.240;16.478;2023-04-16T21:32:45;3.60;;;2.47;;
19593;SDS011;9944;48.240;16.478;2023-04-16T21:36:49;2.72;;;2.33;;
19593;SDS011;9944;48.240;16.478;2023-04-16T21:40:52;3.08;;;2.40;;
19593;SDS011;9944;48.240;16.478;2023-04-16T21:44:57;3.08;;;2.40;;
19593;SDS011;9944;48.240;16.478;2023-04-16T21:49:00;3.03;;;2.28;;
19593;SDS011;9944;48.240;16.478;2023-04-16T21:53:04;3.08;;;2.67;;
19593;SDS011;9944;48.240;16.478;2023-04-16T21:57:07;3.28;;;2.17;;
19593;SDS011;9944;48.240;16.478;2023-04-16T22:01:12;2.25;;;1.90;;
19593;SDS011;9944;48.240;16.478;2023-04-16T22:05:15;2.40;;;2.00;;
19593;SDS011;9944;48.240;16.478;2023-04-16T22:09:20;2.60;;;2.17;;
19593;SDS011;9944;48.240;16.478;2023-04-16T22:13:25;5.45;;;2.50;;
19593;SDS011;9944;48.240;16.478;2023-04-16T22:17:31;3.03;;;2.30;;
19593;SDS011;9944;48.240;16.478;2023-04-16T22:21:35;3.13;;;2.60;;
19593;SDS011;9944;48.240;16.478;2023-04-16T22:25:38;2.88;;;2.30;;
19593;SDS011;9944;48.240;16.478;2023-04-16T22:29:41;3.55;;;2.75;;
19593;SDS011;9944;48.240;16.478;2023-04-16T22:33:45;3.88;;;2.95;;
19593;SDS011;9944;48.240;16.478;2023-04-16T22:37:48;3.65;;;2.63;;
19593;SDS011;9944;48.240;16.478;2023-04-16T22:41:51;3.05;;;2.40;;
19593;SDS011;9944;48.240;16.478;2023-04-16T22:46:01;3.03;;;2.63;;
19593;SDS011;9944;48.240;16.478;2023-04-16T22:50:07;3.15;;;2.55;;
19593;SDS011;9944;48.240;16.478;2023-04-16T22:54:11;3.15;;;2.45;;
19593;SDS011;9944;48.240;16.478;2023-04-16T22:58:14;4.30;;;2.75;;
19593;SDS011;9944;48.240;16.478;2023-04-16T23:02:18;3.65;;;2.75;;
19593;SDS011;9944;48.240;16.478;2023-04-16T23:06:23;3.30;;;2.50;;
19593;SDS011;9944;48.240;16.478;2023-04-16T23:10:27;3.00;;;2.38;;
19593;SDS011;9944;48.240;16.478;2023-04-16T23:14:30;3.88;;;2.70;;
19593;SDS011;9944;48.240;16.478;2023-04-16T23:18:33;3.28;;;2.45;;
19593;SDS011;9944;48.240;16.478;2023-04-16T23:22:38;3.28;;;2.53;;
19593;SDS011;9944;48.240;16.478;2023-04-16T23:26:42;3.05;;;2.45;;
19593;SDS011;9944;48.240;16.478;2023-04-16T23:30:45;3.45;;;2.60;;
19593;SDS011;9944;48.240;16.478;2023-04-16T23:34:48;3.00;;;2.40;;
19593;SDS011;9944;48.240;16.478;2023-04-16T23:38:52;4.60;;;2.70;;
19593;SDS011;9944;48.240;16.478;2023-04-16T23:42:55;2.92;;;2.60;;
19593;SDS011;9944;48.240;16.478;2023-04-16T23:46:58;3.67;;;3.00;;
19593;SDS011;9944;48.240;16.478;2023-04-16T23:51:02;3.65;;;2.80;;
19593;SDS011;9944;48.240;16.478;2023-04-16T23:55:07;3.47;;;2.70;;
19593;SDS011;9944;48.240;16.478;2023-04-16T23:59:10;3.75;;;2.97;;
